首页
METAR-TAF:

METAR-TAF

机场 :

Shaw Air Force Base

Sumter, 南卡罗来纳州, 美国

纬度: 33-58N, 经度: 080-29W, 海拔: 74米

当前天气观测

该预报发布于1小时和0分钟前的09:56 UTC
风速6节,风向北转西北
温度 12°C
湿度 67%
气压 1017 hPa
能見度: 16.1公里
天空无云

METAR: KSSC 210956Z AUTO 33006KT 10SM CLR 12/06 A3003 RMK AO2 SLP170 T01170058 $

时间: 06:56 (10:56 UTC)

预报

该预报发布于1小时和26分钟前的09:30 UTC
预报有效从21日的 09点(UTC)到 22日的 13点(UTC)
风速9节,风向西北
能见度10公里或以上
天空无云
成为
从 21日的 10点(UTC)到 21日的 11点(UTC)
风速9节,风向北转西北
能见度10公里或以上
天空无云
成为
从 21日的 12点(UTC)到 21日的 13点(UTC)
风速12节,风向,有时为20节阵风
能见度10公里或以上
天空无云
成为
从 21日的 19点(UTC)到 21日的 20点(UTC)
风速12节,风向
能见度10公里或以上
天空无云
成为
从 21日的 23点(UTC)到 21日的 24点(UTC)
风速6节,风向
能见度10公里或以上
天空无云

TAF: KSSC 210930Z 2109/2213 32009KT 9999 SKC WS020/34030KT QNH2989INS BECMG 2110/2111 34009KT 9999 SKC QNH3000INS BECMG 2112/2113 35012G20KT 9999 SKC QNH3013INS BECMG 2119/2120 36012KT 9999 SKC QNH3015INS BECMG 2123/2124 35006KT 9999 SKC QNH3019INS TX17/2120Z TN09/2111Z

超过4000个机场的气象观测和天气预报(METAR&TAF报告)。

可查询的气象台以黄色和红色小点在地图上表示。

将鼠标移到小点上方,可查看气象台名称。

然后点击查看天气观测和预报。

如需切换地图:点击带黑十字的绿色按钮放大地图;点击带横线的绿色按钮缩小地图;或者点击绿色箭头查看邻近地区的地图。


METAR-TAF: